Time;durP1;ratioP1;P1;durP2;ratioP2;P2;SDS_P1;SDS_P2;PMS_P1;PMS_P2;Temp;Humidity;BMP_temperature;BMP_pressure;BME280_temperature;BME280_humidity;BME280_pressure;Samples;Min_cycle;Max_cycle;Signal;HPM_P1;HPM_P2
2022/01/20 00:02:07;;;;;;;122.85;60.35;;;;;;;-0.56;61.03;100291.19;4390344;32;34063;-56
2022/01/20 00:04:44;;;;;;;118.18;55.85;;;;;;;-0.69;61.57;100289.53;4378624;32;35156;-56
2022/01/20 00:07:29;;;;;;;112.85;65.62;;;;;;;-0.82;61.74;100286.16;4375625;32;33819;-56
2022/01/20 00:26:00;;;;;;;93.68;46.80;;;;;;;-0.86;61.86;100297.44;4389489;32;35019;-56
2022/01/20 00:28:47;;;;;;;95.30;46.63;;;;;;;-0.95;61.89;100295.78;4380282;32;33643;-56
2022/01/20 00:33:53;;;;;;;107.82;62.50;;;;;;;-0.79;61.20;100283.56;4378938;32;33840;-56
2022/01/20 00:39:04;;;;;;;86.90;46.22;;;;;;;-0.83;61.72;100295.69;4377517;32;33871;-56
2022/01/20 00:41:32;;;;;;;93.55;44.92;;;;;;;-0.80;61.36;100299.97;4375593;32;34398;-56
2022/01/20 00:43:59;;;;;;;96.18;45.58;;;;;;;-0.55;60.64;100294.63;4388308;32;35106;-56
2022/01/20 00:46:27;;;;;;;87.80;44.92;;;;;;;-0.74;61.13;100297.34;4389344;32;34735;-56
2022/01/20 00:48:54;;;;;;;91.28;44.92;;;;;;;-0.88;61.43;100301.78;4374413;32;33660;-56
2022/01/20 00:51:23;;;;;;;86.25;44.53;;;;;;;-0.88;61.45;100304.38;4374872;32;33959;-56
2022/01/20 00:53:54;;;;;;;82.00;41.65;;;;;;;-0.88;61.35;100301.78;4375596;32;34438;-56
2022/01/20 00:56:21;;;;;;;92.10;43.67;;;;;;;-0.91;61.44;100296.59;4373798;32;34099;-56
2022/01/20 00:58:49;;;;;;;81.07;40.53;;;;;;;-0.97;61.28;100294.91;4378947;32;34702;-56
2022/01/20 01:01:17;;;;;;;76.55;39.78;;;;;;;-0.86;60.96;100302.63;4388721;32;34055;-56
2022/01/20 01:03:44;;;;;;;71.82;37.50;;;;;;;-0.95;60.89;100303.56;4383786;32;34235;-56
2022/01/20 01:08:58;;;;;;;68.75;38.53;;;;;;;-0.95;61.01;100306.16;4375286;32;33877;-56
2022/01/20 01:11:26;;;;;;;75.93;47.55;;;;;;;-0.88;60.95;100304.38;4374916;32;35531;-56
2022/01/20 01:13:55;;;;;;;;;;;;;;;-0.91;60.81;100301.78;4377025;32;34056;-56
2022/01/20 01:16:33;;;;;;;77.60;42.60;;;;;;;-0.96;60.68;100306.16;4389960;32;34673;-56
2022/01/20 01:22:02;;;;;;;82.85;44.53;;;;;;;-1.04;60.98;100307.06;4389535;32;34012;-56
2022/01/20 01:24:30;;;;;;;81.50;42.45;;;;;;;-1.03;60.81;100313.09;4382077;32;34342;-56
2022/01/20 01:26:58;;;;;;;85.20;42.88;;;;;;;-1.06;60.83;100308.78;4373496;32;34256;-56
2022/01/20 01:32:08;;;;;;;76.50;39.53;;;;;;;-1.06;61.17;100280.28;4374160;32;34071;-56
2022/01/20 01:34:39;;;;;;;77.93;41.10;;;;;;;-1.12;62.03;100287.25;4375811;32;34646;-56
2022/01/20 01:37:24;;;;;;;77.47;39.83;;;;;;;-0.98;61.98;100269.88;4389951;32;33783;-56
2022/01/20 01:39:51;;;;;;;90.40;43.30;;;;;;;-0.79;61.44;100262.81;4379934;32;33418;-56
2022/01/20 01:42:49;;;;;;;87.82;46.03;;;;;;;-0.80;61.50;100266.28;4385054;32;34030;-56
2022/01/20 01:45:24;;;;;;;94.37;45.60;;;;;;;-0.85;62.02;100265.47;4389087;32;34571;-56
2022/01/20 01:47:52;;;;;;;81.30;42.65;;;;;;;-0.82;62.12;100247.28;4388740;32;34167;-56
2022/01/20 01:50:20;;;;;;;82.80;40.47;;;;;;;-0.72;61.82;100237.69;4385448;32;33846;-56
2022/01/20 01:52:48;;;;;;;;;;;;;;;-0.74;62.26;100229.06;4385467;32;34307;-56
2022/01/20 01:55:16;;;;;;;78.55;39.65;;;;;;;-0.31;61.25;100239.91;4389879;32;35112;-56
2022/01/20 01:57:44;;;;;;;74.75;39.22;;;;;;;-0.47;61.60;100223.63;4388547;32;33731;-56
2022/01/20 02:00:13;;;;;;;76.35;39.78;;;;;;;-0.41;61.63;100230.47;4377994;32;33210;-56
2022/01/20 02:02:44;;;;;;;74.78;39.45;;;;;;;-0.61;62.57;100207.34;4387354;32;34000;-56
2022/01/20 02:05:15;;;;;;;72.68;37.95;;;;;;;-0.36;62.12;100212.28;4380515;32;34132;-56
2022/01/20 02:18:49;;;;;;;69.93;36.45;;;;;;;-0.30;63.53;100178.50;4373449;32;33784;-56
2022/01/20 02:21:18;;;;;;;72.72;42.03;;;;;;;-0.30;63.79;100171.56;4374953;32;33584;-56
2022/01/20 02:23:48;;;;;;;71.37;39.42;;;;;;;-0.30;64.09;100170.69;4376935;32;33905;-56
2022/01/20 02:26:15;;;;;;;66.22;35.38;;;;;;;-0.15;63.60;100169.69;4389081;32;34335;-56
2022/01/20 02:28:45;;;;;;;75.80;38.13;;;;;;;-0.24;63.83;100155.06;4389663;32;33766;-56
2022/01/20 02:31:14;;;;;;;66.05;35.25;;;;;;;-0.28;63.92;100163.75;4379582;32;33757;-56
2022/01/20 02:33:41;;;;;;;;;;;;;;;0.06;63.12;100155.56;4388091;32;34916;-56
2022/01/20 02:36:14;;;;;;;68.47;35.03;;;;;;;-0.17;63.68;100158.47;4380868;32;34251;-56
2022/01/20 02:38:48;;;;;;;68.50;38.13;;;;;;;-0.03;62.95;100152.19;4389668;32;33795;-56
2022/01/20 02:46:48;;;;;;;55.42;30.60;;;;;;;-0.57;64.68;100151.97;4376186;32;34291;-56
2022/01/20 02:49:17;;;;;;;51.33;31.52;;;;;;;-0.73;65.03;100147.81;4373004;32;33822;-56
2022/01/20 02:51:53;;;;;;;47.45;25.75;;;;;;;-0.41;64.07;100137.97;4374400;32;34166;-56
2022/01/20 02:54:22;;;;;;;51.60;28.65;;;;;;;-0.10;63.02;100145.34;4377945;32;33529;-56
2022/01/20 02:56:50;;;;;;;50.35;25.70;;;;;;;-0.22;63.55;100141.19;4388508;32;34612;-56
2022/01/20 02:59:17;;;;;;;47.58;25.50;;;;;;;-0.32;63.82;100138.72;4388989;32;33739;-56
2022/01/20 03:01:45;;;;;;;50.20;29.52;;;;;;;-0.42;63.85;100127.59;4386674;32;33285;-56
2022/01/20 03:04:14;;;;;;;48.72;27.83;;;;;;;-0.15;63.06;100125.56;4382156;32;34740;-56
2022/01/20 03:06:42;;;;;;;46.10;28.92;;;;;;;-0.13;62.23;100134.19;4384887;32;34356;-56
2022/01/20 03:09:09;;;;;;;47.92;26.83;;;;;;;-0.46;63.22;100123.31;4386898;32;33684;-56
2022/01/20 03:11:37;;;;;;;49.08;23.42;;;;;;;-0.39;62.88;100114.56;4389075;32;34260;-56
2022/01/20 03:14:04;;;;;;;44.92;22.00;;;;;;;-0.33;62.92;100113.62;4383137;32;34646;-56
2022/01/20 03:16:32;;;;;;;46.40;29.12;;;;;;;-0.39;63.03;100117.16;4374647;32;34377;-56
2022/01/20 03:19:00;;;;;;;42.88;23.90;;;;;;;-0.36;62.98;100111.94;4377719;32;33908;-56
2022/01/20 03:21:28;;;;;;;45.75;24.37;;;;;;;-0.59;63.86;100114.81;4375136;32;34239;-56
2022/01/20 03:23:56;;;;;;;48.58;23.90;;;;;;;-0.53;63.39;100098.31;4385753;32;34369;-56
2022/01/20 03:26:24;;;;;;;41.10;23.05;;;;;;;-0.68;63.40;100107.09;4387088;32;33835;-56
2022/01/20 03:28:51;;;;;;;46.58;24.23;;;;;;;-0.33;62.71;100096.34;4388504;32;34760;-56
2022/01/20 03:31:19;;;;;;;45.38;28.65;;;;;;;-0.45;62.74;100088.69;4388151;32;33827;-56
2022/01/20 03:33:47;;;;;;;45.95;25.95;;;;;;;-0.56;63.16;100088.84;4384598;32;33608;-56
2022/01/20 03:36:14;;;;;;;45.42;23.50;;;;;;;-0.58;63.18;100087.13;4383258;32;34127;-56
2022/01/20 03:38:45;;;;;;;44.22;23.00;;;;;;;-0.53;63.16;100088.78;4386050;32;34010;-56
2022/01/20 03:41:14;;;;;;;45.67;28.77;;;;;;;-0.58;63.37;100085.41;4374115;32;33775;-56
2022/01/20 03:43:41;;;;;;;43.20;26.52;;;;;;;-0.54;62.74;100076.72;4388367;32;34875;-56
2022/01/20 03:46:12;;;;;;;;;;;;;;;-0.48;62.72;100062.81;4373821;32;35442;-56
2022/01/20 03:48:49;;;;;;;44.08;22.40;;;;;;;-0.33;62.58;100065.22;4375539;32;35236;-56
2022/01/20 03:51:21;;;;;;;44.17;22.23;;;;;;;-0.46;62.54;100066.25;4386811;32;33502;-56
2022/01/20 03:53:50;;;;;;;43.42;22.25;;;;;;;-0.37;62.10;100070.44;4380127;32;33738;-56
2022/01/20 03:56:22;;;;;;;42.65;27.23;;;;;;;-0.34;61.85;100071.28;4381815;32;33968;-56
2022/01/20 03:58:51;;;;;;;42.78;28.62;;;;;;;-0.40;61.84;100067.00;4387744;32;33917;-56
2022/01/20 04:01:19;;;;;;;45.28;28.62;;;;;;;-0.60;62.54;100064.66;4382668;32;33797;-56
2022/01/20 04:03:48;;;;;;;44.53;28.40;;;;;;;-0.61;62.24;100062.09;4386296;32;33721;-56
2022/01/20 04:06:22;;;;;;;45.58;27.55;;;;;;;-0.69;62.36;100061.31;4373825;32;34966;-56
2022/01/20 04:08:50;;;;;;;41.37;27.40;;;;;;;-0.62;61.83;100058.63;4373245;32;34493;-56
2022/01/20 04:11:22;;;;;;;;;;;;;;;-0.72;61.90;100062.19;4372604;32;33801;-56
2022/01/20 04:13:50;;;;;;;38.63;20.98;;;;;;;-0.60;61.78;100051.69;4380172;32;34499;-56
2022/01/20 04:16:32;;;;;;;41.47;22.58;;;;;;;-0.51;61.26;100049.88;4376317;32;35190;-56
2022/01/20 04:19:09;;;;;;;44.70;27.70;;;;;;;-0.65;61.72;100053.47;4374921;32;33976;-56
2022/01/20 04:21:38;;;;;;;41.58;27.42;;;;;;;-0.71;61.68;100063.06;4388263;32;34539;-56
2022/01/20 04:24:07;;;;;;;44.17;22.25;;;;;;;-0.74;61.63;100057.91;4385508;32;34404;-56
2022/01/20 04:26:35;;;;;;;43.97;22.45;;;;;;;-0.79;61.81;100057.97;4380950;32;34089;-56
2022/01/20 04:29:05;;;;;;;47.92;25.37;;;;;;;-0.86;62.05;100062.34;4372290;32;34119;-56
2022/01/20 04:31:35;;;;;;;41.58;22.30;;;;;;;-0.82;61.58;100060.59;4372605;32;33856;-56
2022/01/20 04:34:04;;;;;;;41.95;22.75;;;;;;;-0.76;61.60;100052.72;4376836;32;34863;-56
2022/01/20 04:36:35;;;;;;;42.97;23.40;;;;;;;-0.61;61.10;100054.31;4376758;32;33180;-56
2022/01/20 04:39:08;;;;;;;46.47;24.10;;;;;;;-0.75;61.19;100056.22;4374245;32;33847;-56
2022/01/20 04:41:36;;;;;;;45.38;22.58;;;;;;;-0.79;61.21;100065.75;4373911;32;33772;-56
2022/01/20 04:44:06;;;;;;;;;;;;;;;-0.66;60.77;100072.53;4375573;32;34700;-56
2022/01/20 04:57:17;;;;;;;52.45;30.42;;;;;;;-0.94;61.49;100078.88;4375941;32;34156;-56
2022/01/20 04:59:46;;;;;;;53.40;28.98;;;;;;;-0.79;61.20;100083.91;4375129;32;34060;-56
2022/01/20 05:02:14;;;;;;;51.50;28.25;;;;;;;-0.85;61.35;100074.44;4385666;32;33362;-56
2022/01/20 05:04:42;;;;;;;50.80;33.47;;;;;;;-0.94;61.57;100065.91;4379681;32;33615;-56
2022/01/20 05:07:18;;;;;;;47.92;29.73;;;;;;;-1.07;61.82;100057.37;4388358;32;34596;-56
2022/01/20 05:09:45;;;;;;;47.72;26.52;;;;;;;-1.02;61.98;100061.66;4377230;32;34028;-56
2022/01/20 05:12:17;;;;;;;55.90;32.50;;;;;;;-0.83;61.34;100064.06;4374811;32;35082;-56
2022/01/20 05:14:45;;;;;;;49.50;29.67;;;;;;;-0.96;61.42;100065.06;4385614;32;33600;-56
2022/01/20 05:17:13;;;;;;;174.77;59.95;;;;;;;-0.92;61.35;100054.66;4389877;32;35481;-56
2022/01/20 05:19:42;;;;;;;245.10;84.50;;;;;;;-0.89;60.80;100057.22;4388555;32;33978;-56
2022/01/20 05:22:09;;;;;;;140.30;52.53;;;;;;;-1.08;61.91;100053.09;4376433;32;34588;-56
2022/01/20 05:24:37;;;;;;;;;;;;;;;-1.01;61.88;100058.22;4384676;32;33628;-56
2022/01/20 05:27:05;;;;;;;97.97;38.78;;;;;;;-0.74;61.17;100068.28;4389815;32;34487;-56
2022/01/20 05:29:32;;;;;;;108.35;43.15;;;;;;;-0.94;61.20;100071.94;4381337;32;33519;-56
2022/01/20 05:32:00;;;;;;;95.45;40.33;;;;;;;-1.03;61.77;100064.25;4374311;32;33756;-56
2022/01/20 05:34:28;;;;;;;79.18;34.95;;;;;;;-1.17;62.67;100058.38;4379377;32;33507;-56
2022/01/20 05:36:56;;;;;;;73.47;40.22;;;;;;;-1.01;62.73;100059.91;4373623;32;34261;-56
2022/01/20 05:39:25;;;;;;;65.75;40.00;;;;;;;-1.16;63.66;100049.69;4374894;32;34168;-56
2022/01/20 05:41:52;;;;;;;62.17;32.60;;;;;;;-1.09;63.52;100060.00;4377170;32;33561;-56
2022/01/20 05:44:20;;;;;;;71.20;43.87;;;;;;;-0.88;63.00;100055.47;4388615;32;33413;-56
2022/01/20 05:46:52;;;;;;;66.53;36.28;;;;;;;-1.03;63.74;100051.28;4377890;32;34879;-56
2022/01/20 05:49:21;;;;;;;54.83;32.10;;;;;;;-0.79;63.53;100047.59;4381399;32;35004;-56
2022/01/20 05:51:54;;;;;;;60.50;37.83;;;;;;;-0.89;64.08;100049.44;4374839;32;33844;-56
2022/01/20 05:54:22;;;;;;;57.20;30.80;;;;;;;-1.01;65.07;100044.37;4373866;32;33820;-56
2022/01/20 05:56:50;;;;;;;;;;;;;;;-0.90;64.84;100049.44;4390194;32;34110;-56
2022/01/20 05:59:17;;;;;;;56.80;27.48;;;;;;;-0.88;65.00;100051.13;4394956;32;34884;-56
2022/01/20 06:01:52;;;;;;;50.65;27.95;;;;;;;-0.90;64.80;100058.06;4392625;32;33489;-56
2022/01/20 06:04:20;;;;;;;54.15;27.65;;;;;;;-0.68;63.97;100068.22;4398767;32;33598;-56
2022/01/20 06:06:47;;;;;;;57.70;31.10;;;;;;;-0.73;63.57;100068.28;4403853;32;34923;-56
2022/01/20 06:09:15;;;;;;;70.37;34.47;;;;;;;-0.65;63.16;100066.44;4396810;32;33909;-56
2022/01/20 06:11:43;;;;;;;74.05;34.90;;;;;;;-0.37;62.05;100047.09;4388534;32;33392;-56
2022/01/20 06:14:11;;;;;;;76.50;37.83;;;;;;;-0.63;62.93;100046.53;4388433;32;33457;-56
2022/01/20 06:16:41;;;;;;;89.93;42.40;;;;;;;-0.68;63.19;100052.66;4388453;32;34572;-56
2022/01/20 06:19:09;;;;;;;94.78;40.70;;;;;;;-0.68;63.49;100047.47;4386601;32;32947;-56
2022/01/20 06:21:41;;;;;;;98.50;44.97;;;;;;;-0.64;63.48;100049.12;4374741;32;34430;-56
2022/01/20 06:24:09;;;;;;;60.30;32.50;;;;;;;-0.69;63.49;100033.66;4373599;32;33406;-56
2022/01/20 06:26:36;;;;;;;71.47;34.53;;;;;;;-0.71;63.10;100035.41;4380309;32;34979;-56
2022/01/20 06:29:04;;;;;;;74.22;39.55;;;;;;;-0.67;62.64;100038.81;4388037;32;34546;-56
2022/01/20 06:31:34;;;;;;;78.25;38.58;;;;;;;-0.61;62.63;100044.78;4374653;32;33795;-56
2022/01/20 06:34:01;;;;;;;77.10;38.70;;;;;;;-0.44;62.29;100046.31;4379721;32;34609;-56
2022/01/20 06:36:29;;;;;;;78.40;39.40;;;;;;;-0.22;61.94;100044.28;4378701;32;34298;-57
2022/01/20 06:38:57;;;;;;;73.32;38.60;;;;;;;-0.50;63.33;100044.66;4396617;32;33446;-56
2022/01/20 06:41:27;;;;;;;81.37;47.78;;;;;;;-0.61;63.90;100056.91;4379441;32;33790;-56
2022/01/20 06:43:55;;;;;;;85.43;48.25;;;;;;;-0.59;64.62;100047.37;4382242;32;34715;-56
2022/01/20 06:46:22;;;;;;;70.28;44.80;;;;;;;-0.56;64.87;100052.53;4385426;32;35268;-56
2022/01/20 06:48:50;;;;;;;77.05;44.90;;;;;;;-0.42;64.59;100048.00;4382682;32;34536;-56
2022/01/20 06:51:20;;;;;;;75.68;43.25;;;;;;;-0.35;64.89;100042.75;4383309;32;34282;-56
2022/01/20 06:53:48;;;;;;;86.03;50.92;;;;;;;-0.21;65.03;100038.25;4374225;32;35172;-56
2022/01/20 06:56:15;;;;;;;83.37;47.78;;;;;;;-0.41;65.71;100031.59;4374130;32;34053;-56
2022/01/20 06:59:03;;;;;;;74.85;37.55;;;;;;;-0.37;66.46;100040.16;4373172;32;33966;-56
2022/01/20 07:01:31;;;;;;;69.20;37.30;;;;;;;-0.26;66.69;100038.28;4382127;32;33891;-56
2022/01/20 07:03:59;;;;;;;66.47;34.83;;;;;;;-0.22;67.64;100024.38;4385660;32;33639;-55
2022/01/20 07:06:27;;;;;;;67.22;34.78;;;;;;;-0.18;67.94;100021.75;4388691;32;35061;-55
2022/01/20 07:09:03;;;;;;;64.35;32.70;;;;;;;-0.13;68.06;100014.78;4389391;32;32586;-56
2022/01/20 07:11:31;;;;;;;;;;;;;;;-0.12;68.97;100021.66;4388600;32;33783;-55
2022/01/20 07:13:59;;;;;;;55.38;27.13;;;;;;;0.05;69.67;100017.09;4387887;32;33930;-56
2022/01/20 07:16:26;;;;;;;56.55;36.35;;;;;;;0.30;68.97;100003.72;4387100;32;34494;-56
2022/01/20 07:18:54;;;;;;;;;;;;;;;0.26;69.58;100010.72;4389838;32;33907;-56
2022/01/20 07:21:22;;;;;;;54.63;27.10;;;;;;;0.38;69.34;100001.84;4388279;32;33860;-56
2022/01/20 07:23:50;;;;;;;52.47;27.52;;;;;;;0.37;69.82;100010.53;4389035;32;33945;-56
2022/01/20 07:26:18;;;;;;;48.97;27.33;;;;;;;0.63;69.00;100004.03;4384313;32;34945;-55
2022/01/20 07:28:45;;;;;;;55.10;29.23;;;;;;;0.44;69.86;99990.50;4373065;32;34221;-56
2022/01/20 07:31:15;;;;;;;54.50;28.95;;;;;;;0.78;68.94;99995.97;4374287;32;33508;-56
2022/01/20 07:33:44;;;;;;;51.22;27.52;;;;;;;0.80;68.73;99991.59;4372450;32;34347;-56
2022/01/20 07:36:12;;;;;;;56.37;30.80;;;;;;;0.92;68.15;99993.97;4375401;32;34282;-56
2022/01/20 07:38:41;;;;;;;58.95;37.30;;;;;;;0.98;68.05;100006.84;4382786;32;33811;-56
2022/01/20 07:41:09;;;;;;;56.72;30.75;;;;;;;1.00;68.63;100004.22;4394575;32;34977;-55
2022/01/20 07:43:38;;;;;;;;;;;;;;;1.00;68.34;99996.41;4387121;32;33968;-56
2022/01/20 07:46:09;;;;;;;54.95;31.95;;;;;;;1.27;69.54;99979.41;4386203;32;34322;-55
2022/01/20 07:48:38;;;;;;;55.80;34.80;;;;;;;1.17;68.74;99980.50;4386471;32;35527;-55
2022/01/20 07:51:06;;;;;;;53.95;34.03;;;;;;;1.12;68.86;99979.72;4387503;32;33126;-55
2022/01/20 07:53:35;;;;;;;54.40;34.25;;;;;;;1.24;68.32;99974.28;4388794;32;33798;-55
2022/01/20 07:56:05;;;;;;;56.00;34.75;;;;;;;1.25;68.37;99975.12;4386372;32;35942;-55
2022/01/20 07:58:34;;;;;;;49.90;29.02;;;;;;;1.45;67.53;99985.97;4386651;32;34338;-55
2022/01/20 08:01:03;;;;;;;57.33;33.47;;;;;;;1.37;67.92;99977.47;4382140;32;33469;-55
2022/01/20 08:03:32;;;;;;;66.57;35.83;;;;;;;1.35;67.35;99990.50;4372341;32;33719;-55
2022/01/20 08:06:00;;;;;;;64.20;35.50;;;;;;;1.77;73.13;99985.25;4374372;32;34087;-55
2022/01/20 08:08:28;;;;;;;60.75;38.97;;;;;;;1.81;70.62;99988.66;4372377;32;36851;-55
2022/01/20 08:10:58;;;;;;;65.80;40.33;;;;;;;2.05;68.75;99997.66;4373622;32;33717;-55
2022/01/20 08:13:25;;;;;;;57.20;36.13;;;;;;;2.09;68.16;99991.47;4378912;32;34285;-55
2022/01/20 08:15:53;;;;;;;51.60;33.85;;;;;;;2.17;67.55;99981.75;4387434;32;34487;-55
2022/01/20 08:18:21;;;;;;;;;;;;;;;2.35;66.64;99997.81;4384098;32;34134;-55
2022/01/20 08:20:48;;;;;;;94.53;45.20;;;;;;;2.40;66.26;99985.50;4384979;32;33032;-56
2022/01/20 08:23:15;;;;;;;58.30;34.70;;;;;;;2.68;73.15;100000.47;4394807;32;32821;-56
2022/01/20 08:25:43;;;;;;;57.15;35.40;;;;;;;2.60;69.69;99986.75;4404175;32;34011;-55
2022/01/20 08:28:12;;;;;;;48.17;29.87;;;;;;;2.83;72.22;99992.25;4393859;32;34824;-56
2022/01/20 08:30:41;;;;;;;46.30;29.00;;;;;;;3.97;76.37;99999.38;4382792;32;33952;-56
2022/01/20 08:33:09;;;;;;;46.22;30.33;;;;;;;3.68;70.55;99995.06;4382789;32;33751;-55
2022/01/20 08:35:39;;;;;;;52.53;31.95;;;;;;;3.63;69.23;99992.59;4376567;32;35398;-56
2022/01/20 08:38:07;;;;;;;49.65;33.03;;;;;;;3.50;65.98;99992.09;4387151;32;33858;-55
2022/01/20 08:40:36;;;;;;;51.47;34.33;;;;;;;3.45;64.38;99996.62;4378708;32;34229;-55
2022/01/20 08:43:06;;;;;;;55.35;35.85;;;;;;;3.20;63.49;100001.69;4387194;32;34664;-56
2022/01/20 08:45:34;;;;;;;61.17;38.78;;;;;;;3.34;63.57;99993.44;4382632;32;33756;-56
2022/01/20 08:48:03;;;;;;;57.17;35.90;;;;;;;3.34;63.54;99972.56;4375736;32;33871;-55
2022/01/20 08:50:33;;;;;;;55.55;37.80;;;;;;;3.53;62.96;99968.50;4389174;32;33622;-55
2022/01/20 08:53:00;;;;;;;51.65;32.63;;;;;;;3.43;62.89;99967.09;4386231;32;33365;-55
2022/01/20 08:55:28;;;;;;;47.70;30.15;;;;;;;3.30;63.23;99968.34;4383921;32;34422;-55
2022/01/20 08:57:58;;;;;;;46.08;29.27;;;;;;;3.36;63.01;99976.00;4383567;32;33921;-55
2022/01/20 09:00:28;;;;;;;48.70;29.85;;;;;;;3.30;63.03;99978.78;4388466;32;33855;-55
2022/01/20 09:02:56;;;;;;;46.88;29.85;;;;;;;3.08;63.39;99981.13;4375465;32;33161;-56
2022/01/20 09:05:25;;;;;;;47.42;28.23;;;;;;;3.26;63.00;99978.00;4385868;32;35081;-55
2022/01/20 09:07:53;;;;;;;44.10;27.13;;;;;;;3.15;63.00;99985.28;4388808;32;34113;-55
2022/01/20 09:10:21;;;;;;;40.67;27.15;;;;;;;3.41;62.29;99983.66;4391892;32;34425;-55
2022/01/20 09:15:29;;;;;;;41.83;26.25;;;;;;;3.41;63.44;99988.91;4404069;32;33881;-56
2022/01/20 09:18:04;;;;;;;40.67;26.05;;;;;;;3.43;62.99;99994.91;4404153;32;34842;-55
2022/01/20 09:20:32;;;;;;;39.10;26.23;;;;;;;3.66;62.31;99992.47;4390283;32;32337;-55
2022/01/20 09:23:00;;;;;;;38.08;26.15;;;;;;;3.67;62.30;100002.03;4394890;32;34064;-55
2022/01/20 09:25:28;;;;;;;49.25;27.67;;;;;;;3.77;62.23;99994.78;4377571;32;35072;-55
2022/01/20 09:27:55;;;;;;;40.55;25.70;;;;;;;3.70;62.65;99988.03;4375540;32;33713;-56
2022/01/20 09:30:25;;;;;;;42.70;26.62;;;;;;;3.70;62.00;99994.13;4386785;32;33524;-55
2022/01/20 09:33:00;;;;;;;40.55;25.88;;;;;;;3.65;61.87;99995.16;4383219;32;34799;-55
2022/01/20 09:35:33;;;;;;;39.67;25.85;;;;;;;3.77;61.62;99996.53;4374074;32;35129;-55
2022/01/20 09:38:01;;;;;;;42.85;27.17;;;;;;;3.73;61.63;99998.41;4373467;32;34286;-55
2022/01/20 09:40:31;;;;;;;42.15;26.42;;;;;;;3.85;61.55;99991.94;4374484;32;33375;-55
2022/01/20 09:42:59;;;;;;;41.75;27.48;;;;;;;3.98;61.49;99997.66;4383117;32;34502;-55
2022/01/20 09:45:27;;;;;;;42.95;26.92;;;;;;;4.12;64.96;99998.06;4383631;32;34609;-55
2022/01/20 09:47:58;;;;;;;37.70;25.20;;;;;;;4.11;62.86;99994.59;4385781;32;34759;-55
2022/01/20 09:50:28;;;;;;;39.28;25.33;;;;;;;4.19;62.06;99994.34;4389568;32;34462;-55
2022/01/20 09:52:59;;;;;;;42.08;26.73;;;;;;;4.29;61.69;99990.53;4389523;32;34514;-55
2022/01/20 09:55:28;;;;;;;41.80;26.83;;;;;;;4.46;61.17;99994.34;4387135;32;34459;-55
2022/01/20 09:57:56;;;;;;;40.42;26.75;;;;;;;4.46;60.88;99989.97;4389589;32;33720;-55
2022/01/20 10:00:24;;;;;;;34.17;21.10;;;;;;;4.34;61.57;99991.25;4387953;32;33465;-55
2022/01/20 10:03:01;;;;;;;29.45;18.12;;;;;;;4.52;61.60;99984.53;4389653;32;33971;-55
2022/01/20 10:05:33;;;;;;;24.67;16.62;;;;;;;4.56;62.34;99977.44;4379882;32;34300;-55
2022/01/20 10:08:07;;;;;;;27.98;17.48;;;;;;;4.67;62.28;99979.69;4373627;32;34367;-55
2022/01/20 10:11:07;;;;;;;26.98;17.25;;;;;;;5.04;61.01;99978.37;4374665;32;33692;-55
2022/01/20 10:13:38;;;;;;;35.53;20.65;;;;;;;4.89;61.56;99978.03;4361395;32;34282;-56
2022/01/20 10:16:14;;;;;;;35.38;21.75;;;;;;;4.96;61.91;99986.50;4374557;32;33658;-55
2022/01/20 10:18:46;;;;;;;27.92;18.42;;;;;;;5.02;62.73;99977.59;4374404;32;34324;-55
2022/01/20 10:21:15;;;;;;;24.90;16.65;;;;;;;4.97;63.87;99972.53;4373767;32;34543;-55
2022/01/20 10:23:47;;;;;;;24.35;17.48;;;;;;;4.79;65.20;99973.16;4383003;32;33402;-55
2022/01/20 10:26:24;;;;;;;26.67;16.85;;;;;;;4.91;65.83;99970.13;4373397;32;34117;-55
2022/01/20 10:28:58;;;;;;;28.00;18.12;;;;;;;4.91;65.92;99955.28;4374055;32;33794;-55
2022/01/20 10:31:31;;;;;;;27.27;18.55;;;;;;;4.69;66.91;99959.56;4375369;32;34418;-55
2022/01/20 10:34:00;;;;;;;25.17;16.77;;;;;;;4.84;66.82;99939.84;4373796;32;33767;-56
2022/01/20 10:36:27;;;;;;;24.70;16.20;;;;;;;4.79;67.38;99933.91;4372740;32;34120;-56
2022/01/20 10:39:06;;;;;;;21.23;15.02;;;;;;;4.88;67.77;99937.06;4385397;32;33951;-55
2022/01/20 10:41:37;;;;;;;23.20;14.10;;;;;;;4.82;68.60;99929.44;4389499;32;33834;-56
2022/01/20 10:44:07;;;;;;;42.15;24.40;;;;;;;4.98;68.29;99929.72;4387792;32;34078;-55
2022/01/20 10:47:01;;;;;;;19.27;12.50;;;;;;;4.89;69.06;99925.69;4388014;32;34380;-55
2022/01/20 10:49:31;;;;;;;26.37;17.48;;;;;;;4.72;69.61;99936.75;4376626;32;33877;-56
2022/01/20 10:52:02;;;;;;;19.20;11.85;;;;;;;4.82;69.63;99921.59;4385486;32;32866;-56
2022/01/20 10:54:45;;;;;;;18.08;12.45;;;;;;;4.82;70.17;99916.34;4386052;32;33709;-55
2022/01/20 10:57:16;;;;;;;16.55;11.60;;;;;;;4.68;70.76;99918.63;4385789;32;35246;-55
2022/01/20 10:59:52;;;;;;;16.23;10.90;;;;;;;4.68;70.97;99909.00;4388886;32;35686;-55
2022/01/20 11:02:22;;;;;;;16.37;11.05;;;;;;;4.76;70.84;99903.50;4389637;32;34283;-55
2022/01/20 11:04:50;;;;;;;14.80;10.13;;;;;;;4.90;70.42;99889.91;4386534;32;34264;-55
2022/01/20 11:07:18;;;;;;;14.68;9.63;;;;;;;4.93;70.17;99874.09;4389440;32;34104;-55
2022/01/20 11:09:50;;;;;;;;;;;;;;;4.98;70.21;99876.53;4387429;32;34607;-55
2022/01/20 11:12:18;;;;;;;12.60;8.73;;;;;;;5.07;69.67;99871.81;4388553;32;33225;-56
2022/01/20 11:14:47;;;;;;;;;;;;;;;5.13;69.07;99876.81;4387145;32;33446;-55
2022/01/20 11:17:18;;;;;;;14.80;10.27;;;;;;;5.22;68.60;99880.03;4373258;32;34389;-56
2022/01/20 11:19:47;;;;;;;13.07;8.60;;;;;;;5.40;68.03;99881.06;4373870;32;34293;-55
2022/01/20 11:22:15;;;;;;;12.77;8.90;;;;;;;5.38;67.76;99875.88;4364745;32;33799;-55
2022/01/20 11:24:44;;;;;;;13.27;9.32;;;;;;;5.35;67.56;99880.38;4388672;32;33889;-55
2022/01/20 11:27:14;;;;;;;12.88;9.18;;;;;;;5.13;68.08;99876.81;4387596;32;34555;-55
2022/01/20 11:29:45;;;;;;;13.90;9.25;;;;;;;5.16;67.88;99864.53;4387979;32;34210;-56
2022/01/20 11:32:24;;;;;;;12.57;9.15;;;;;;;5.19;67.69;99853.94;4389057;32;33316;-55
2022/01/20 11:35:05;;;;;;;12.50;8.05;;;;;;;5.41;67.00;99851.34;4387228;32;33442;-55
2022/01/20 11:37:41;;;;;;;12.10;7.62;;;;;;;5.31;66.93;99828.16;4380122;32;34235;-56
2022/01/20 11:40:13;;;;;;;11.82;7.93;;;;;;;5.31;66.33;99815.06;4387409;32;34955;-56
2022/01/20 11:42:41;;;;;;;13.18;6.82;;;;;;;5.45;65.89;99813.66;4388362;32;33760;-53
2022/01/20 11:45:22;;;;;;;12.30;7.37;;;;;;;5.79;64.49;99812.25;4391309;32;34681;-53
2022/01/20 11:47:50;;;;;;;10.55;7.10;;;;;;;5.79;64.73;99804.41;4374556;32;34326;-53
2022/01/20 11:50:18;;;;;;;11.77;7.30;;;;;;;5.86;64.62;99804.09;4395852;32;34635;-53
2022/01/20 11:52:46;;;;;;;10.70;6.75;;;;;;;6.04;63.35;99804.25;4404283;32;33332;-53
2022/01/20 11:55:28;;;;;;;11.50;6.90;;;;;;;5.94;63.71;99801.13;4383021;32;33575;-53
2022/01/20 11:57:56;;;;;;;12.82;7.80;;;;;;;6.06;63.68;99800.63;4389081;32;34126;-53
2022/01/20 12:00:26;;;;;;;9.65;6.40;;;;;;;6.03;63.76;99803.41;4375638;32;34969;-53
2022/01/20 12:02:54;;;;;;;10.73;6.32;;;;;;;6.16;63.21;99797.63;4387409;32;33360;-53
2022/01/20 12:05:28;;;;;;;10.43;6.47;;;;;;;6.17;63.02;99794.09;4400067;32;34346;-53
2022/01/20 12:08:14;;;;;;;10.55;6.55;;;;;;;6.19;62.77;99781.78;4366035;32;33923;-53
2022/01/20 12:10:44;;;;;;;13.50;7.28;;;;;;;6.26;62.58;99785.81;4374362;32;34212;-53
2022/01/20 12:13:17;;;;;;;11.60;7.97;;;;;;;6.20;62.32;99773.81;4374301;32;34511;-53
2022/01/20 12:15:52;;;;;;;11.85;7.60;;;;;;;6.46;61.59;99777.91;4375390;32;33855;-53
2022/01/20 12:18:20;;;;;;;12.93;8.00;;;;;;;6.15;61.87;99773.19;4370656;32;34145;-53
2022/01/20 12:20:47;;;;;;;12.00;7.20;;;;;;;6.03;61.93;99760.59;4390193;32;34664;-53
2022/01/20 12:23:16;;;;;;;10.07;6.20;;;;;;;6.39;61.03;99765.16;4377016;32;33671;-53
2022/01/20 12:25:44;;;;;;;10.05;6.15;;;;;;;6.31;60.03;99773.34;4374921;32;34634;-53
2022/01/20 12:28:13;;;;;;;11.15;6.87;;;;;;;6.46;59.22;99758.72;4382125;32;34441;-53
2022/01/20 12:30:47;;;;;;;9.70;5.85;;;;;;;6.43;59.18;99758.84;4389294;32;34307;-53
2022/01/20 12:33:22;;;;;;;9.70;6.30;;;;;;;6.47;58.47;99749.91;4390131;32;33287;-53
2022/01/20 12:35:51;;;;;;;10.52;5.78;;;;;;;6.41;58.21;99737.91;4388764;32;35287;-53